Time;durP1;ratioP1;P1;durP2;ratioP2;P2;SDS_P1;SDS_P2;PMS_P1;PMS_P2;Temp;Humidity;BMP_temperature;BMP_pressure;BME280_temperature;BME280_humidity;BME280_pressure;Samples;Min_cycle;Max_cycle;Signal;HPM_P1;HPM_P2
2022/07/04 00:01:51;;;;;;;4.40;3.97;;;19.30;99.90;20.50;97085.00;;;;5066609;28;20199;-63
2022/07/04 00:04:40;;;;;;;7.17;4.83;;;19.30;99.90;20.70;97088.00;;;;5053115;28;20192;-63
2022/07/04 00:07:30;;;;;;;4.20;3.80;;;19.20;99.90;20.60;97092.00;;;;5059835;28;20223;-63
2022/07/04 00:10:21;;;;;;;5.93;4.63;;;19.20;99.90;20.10;97081.00;;;;5068507;28;20545;-63
2022/07/04 00:13:10;;;;;;;6.43;4.37;;;19.10;99.90;19.30;97084.00;;;;5068768;28;20228;-64
2022/07/04 00:15:59;;;;;;;7.53;4.30;;;18.90;99.90;19.30;97087.00;;;;5063256;28;20217;-63
2022/07/04 00:18:47;;;;;;;5.17;4.50;;;18.70;99.90;19.80;97089.00;;;;5066074;28;20234;-63
2022/07/04 00:21:36;;;;;;;4.73;4.33;;;18.70;99.90;20.20;97087.00;;;;5063642;28;20216;-62
2022/07/04 00:24:26;;;;;;;6.60;4.60;;;18.70;99.90;20.10;97083.00;;;;5068135;28;20204;-63
2022/07/04 00:27:15;;;;;;;6.03;5.53;;;18.70;99.90;19.90;97090.00;;;;5064519;28;20235;-62
2022/07/04 00:30:05;;;;;;;4.53;4.13;;;18.70;99.90;19.20;97083.00;;;;5064366;28;20207;-64
2022/07/04 00:32:54;;;;;;;5.87;5.13;;;18.50;99.90;19.50;97080.00;;;;5061452;28;20230;-62
2022/07/04 00:35:43;;;;;;;5.00;4.50;;;18.40;99.90;19.30;97068.00;;;;5065946;28;20224;-64
2022/07/04 00:38:32;;;;;;;6.17;4.33;;;18.40;99.90;19.80;97074.00;;;;5067161;28;20192;-64
2022/07/04 00:41:22;;;;;;;4.53;4.13;;;18.40;99.90;20.00;97080.00;;;;5066483;28;20605;-63
2022/07/04 00:44:13;;;;;;;5.20;4.70;;;18.40;99.90;19.80;97071.00;;;;5068347;28;20208;-63
2022/07/04 00:47:02;;;;;;;5.60;4.70;;;18.40;99.90;19.60;97065.00;;;;5054436;28;20213;-63
2022/07/04 00:49:51;;;;;;;8.57;4.43;;;18.40;99.90;19.70;97061.00;;;;5064513;28;20594;-64
2022/07/04 00:52:40;;;;;;;5.93;4.87;;;18.40;99.90;19.40;97057.00;;;;5057922;28;20224;-63
2022/07/04 00:55:29;;;;;;;8.80;4.47;;;18.30;99.90;19.00;97060.00;;;;5060634;28;20204;-64
2022/07/04 00:58:24;;;;;;;5.13;4.63;;;18.20;99.90;19.00;97063.00;;;;5059437;28;20197;-64
2022/07/04 01:01:13;;;;;;;7.43;4.70;;;18.10;99.90;19.50;97060.00;;;;5057418;28;20203;-64
2022/07/04 01:04:03;;;;;;;4.83;4.40;;;18.10;99.90;19.70;97052.00;;;;5062776;28;20211;-63
2022/07/04 01:06:53;;;;;;;4.83;4.43;;;18.10;99.90;20.00;97060.00;;;;5061084;28;20323;-63
2022/07/04 01:09:43;;;;;;;7.23;5.13;;;18.30;99.90;19.80;97061.00;;;;5057669;28;20218;-63
2022/07/04 01:12:32;;;;;;;5.23;4.10;;;18.30;99.90;19.20;97058.00;;;;5066911;28;20227;-63
2022/07/04 01:15:22;;;;;;;6.73;4.47;;;18.20;99.90;19.00;97050.00;;;;5056305;28;20238;-62
2022/07/04 01:18:11;;;;;;;4.97;4.43;;;18.10;99.90;19.40;97052.00;;;;5057754;28;20213;-63
2022/07/04 01:21:01;;;;;;;6.03;4.67;;;18.10;99.90;19.80;97044.00;;;;5067694;28;20668;-63
2022/07/04 01:23:50;;;;;;;5.10;4.67;;;18.10;99.90;19.80;97042.00;;;;5065180;28;20218;-63
2022/07/04 01:26:39;;;;;;;4.90;4.43;;;18.20;99.90;19.40;97029.00;;;;5067860;28;20239;-62
2022/07/04 01:29:27;;;;;;;4.83;4.43;;;18.20;99.90;19.30;97029.00;;;;5074117;28;20208;-63
2022/07/04 01:32:17;;;;;;;10.10;4.67;;;18.10;99.90;19.30;97017.00;;;;5065556;28;20208;-62
2022/07/04 01:35:07;;;;;;;7.87;4.20;;;18.10;99.90;18.90;97019.00;;;;5059792;28;20204;-63
2022/07/04 01:37:56;;;;;;;6.53;4.23;;;18.00;99.90;18.70;97025.00;;;;5055417;28;20235;-63
2022/07/04 01:40:45;;;;;;;5.43;4.70;;;17.90;99.90;18.70;97017.00;;;;5052563;28;20201;-62
2022/07/04 01:43:35;;;;;;;4.20;3.90;;;17.80;99.90;18.70;97013.00;;;;5051840;28;20208;-64
2022/07/04 01:46:24;;;;;;;5.77;5.27;;;17.70;99.90;19.00;97013.00;;;;5063606;28;20219;-63
2022/07/04 01:49:12;;;;;;;5.53;4.67;;;17.70;99.90;18.80;97008.00;;;;5065724;28;20200;-63
2022/07/04 01:52:01;;;;;;;5.60;4.67;;;17.60;99.90;19.00;97005.00;;;;5058136;28;20204;-63
2022/07/04 01:54:51;;;;;;;5.87;5.27;;;17.60;99.90;19.10;97004.00;;;;5051888;28;20227;-63
2022/07/04 01:57:40;;;;;;;5.30;4.67;;;17.60;99.90;18.60;96987.00;;;;5060164;28;20196;-63
2022/07/04 02:03:38;;;;;;;5.10;4.60;;;17.60;99.90;19.00;96982.00;;;;5056441;28;20196;-63
2022/07/04 02:06:27;;;;;;;5.63;4.57;;;17.60;99.90;19.30;96986.00;;;;5055479;28;20811;-63
2022/07/04 02:09:16;;;;;;;6.50;4.00;;;17.70;99.90;19.10;96988.00;;;;5062210;28;20200;-63
2022/07/04 02:15:14;;;;;;;7.33;6.03;;;17.70;99.90;18.50;96974.00;;;;5059736;28;20297;-64
2022/07/04 02:18:04;;;;;;;4.27;3.97;;;17.60;99.90;18.10;96977.00;;;;5057350;28;20204;-64
2022/07/04 02:20:52;;;;;;;7.83;4.70;;;17.50;99.90;18.00;96964.00;;;;5065190;28;20222;-64
2022/07/04 02:23:41;;;;;;;7.17;4.87;;;17.30;99.90;18.00;96980.00;;;;5055950;28;20629;-63
2022/07/04 02:26:30;;;;;;;9.53;4.83;;;17.20;99.90;18.10;96979.00;;;;5057748;28;20243;-63
2022/07/04 02:29:20;;;;;;;5.20;4.43;;;17.10;99.90;18.00;96986.00;;;;5072355;28;20204;-62
2022/07/04 02:32:09;;;;;;;7.03;5.93;;;17.10;99.90;18.40;96989.00;;;;5064047;28;20258;-64
2022/07/04 02:34:58;;;;;;;5.93;5.40;;;17.10;99.90;18.10;96981.00;;;;5056670;28;20247;-63
2022/07/04 02:37:47;;;;;;;6.10;5.43;;;17.10;99.90;18.20;96978.00;;;;5056871;28;20557;-63
2022/07/04 02:40:36;;;;;;;8.87;5.60;;;17.00;99.90;17.90;96974.00;;;;5065138;28;20215;-64
2022/07/04 02:43:24;;;;;;;4.83;3.87;;;17.00;99.90;17.70;96986.00;;;;5062162;28;20223;-62
2022/07/04 02:46:14;;;;;;;5.50;5.00;;;16.90;99.90;17.80;96985.00;;;;5049926;28;20224;-62
2022/07/04 02:49:05;;;;;;;5.37;4.87;;;16.80;99.90;17.70;96987.00;;;;5055024;28;20196;-63
2022/07/04 02:51:53;;;;;;;8.33;4.93;;;16.70;99.90;18.10;96990.00;;;;5061808;28;20204;-63
2022/07/04 02:54:42;;;;;;;6.10;5.60;;;16.80;99.90;18.50;96997.00;;;;5049690;28;20571;-63
2022/07/04 02:57:31;;;;;;;5.47;5.03;;;16.80;99.90;18.40;96992.00;;;;5051819;28;20223;-63
2022/07/04 03:00:20;;;;;;;6.63;4.63;;;16.90;99.90;18.60;96985.00;;;;5062405;28;20200;-63
2022/07/04 03:03:10;;;;;;;7.90;5.13;;;17.00;99.90;18.60;96987.00;;;;5063011;28;20921;-63
2022/07/04 03:05:59;;;;;;;5.40;4.77;;;17.00;99.90;18.50;96983.00;;;;5060949;28;20618;-63
2022/07/04 03:08:52;;;;;;;5.70;4.83;;;17.00;99.90;18.20;96977.00;;;;5047604;28;20208;-63
2022/07/04 03:11:41;;;;;;;5.63;4.77;;;17.00;99.90;18.00;96982.00;;;;5062011;28;20215;-64
2022/07/04 03:14:30;;;;;;;5.87;5.03;;;17.00;99.90;17.40;96979.00;;;;5056156;28;20226;-63
2022/07/04 03:17:19;;;;;;;5.83;5.10;;;16.80;99.90;17.60;96993.00;;;;5062900;28;20231;-61
2022/07/04 03:20:10;;;;;;;5.13;4.73;;;16.70;99.90;17.70;96996.00;;;;5064006;28;20208;-63
2022/07/04 03:23:00;;;;;;;5.93;4.97;;;16.70;99.90;17.70;96991.00;;;;5055384;28;20203;-63
2022/07/04 03:25:49;;;;;;;9.33;5.27;;;16.70;99.90;17.90;96984.00;;;;5056304;28;20224;-63
2022/07/04 03:28:37;;;;;;;5.93;5.00;;;16.60;99.90;17.60;96985.00;;;;5064425;28;20200;-63
2022/07/04 03:31:28;;;;;;;5.93;5.33;;;16.60;99.90;17.60;96983.00;;;;5061198;28;20200;-63
2022/07/04 03:34:16;;;;;;;6.67;4.40;;;16.60;99.90;18.00;96982.00;;;;5066768;28;20218;-63
2022/07/04 03:37:07;;;;;;;8.20;4.90;;;16.70;99.90;18.10;96991.00;;;;5065484;28;20223;-62
2022/07/04 03:39:55;;;;;;;6.47;5.07;;;16.70;99.90;17.90;96992.00;;;;5054130;28;20200;-64
2022/07/04 03:42:44;;;;;;;6.13;5.53;;;16.70;99.90;18.30;96989.00;;;;5056054;28;20228;-63
2022/07/04 03:45:33;;;;;;;5.67;4.80;;;16.80;99.90;18.70;97002.00;;;;5055933;28;20236;-62
2022/07/04 03:48:22;;;;;;;5.40;4.90;;;16.90;99.90;18.80;97004.00;;;;5048092;28;20696;-64
2022/07/04 03:51:12;;;;;;;5.37;4.90;;;17.10;99.90;18.80;97003.00;;;;5058178;28;20200;-64
2022/07/04 03:54:02;;;;;;;6.27;4.93;;;17.20;99.90;18.20;97015.00;;;;5066729;28;20675;-65
2022/07/04 03:56:52;;;;;;;6.03;4.53;;;17.10;99.90;18.10;97010.00;;;;5061140;28;20244;-64
2022/07/04 03:59:41;;;;;;;5.73;4.43;;;17.00;99.90;17.80;97014.00;;;;5064362;28;20196;-65
2022/07/04 04:02:29;;;;;;;4.43;4.03;;;17.00;99.90;17.60;97025.00;;;;5057172;28;20196;-65
2022/07/04 04:05:26;;;;;;;6.50;4.77;;;16.90;99.90;18.00;97018.00;;;;5053109;28;20228;-64
2022/07/04 04:08:15;;;;;;;10.43;5.17;;;16.80;99.90;17.90;97016.00;;;;5065664;28;20192;-64
2022/07/04 04:11:05;;;;;;;5.47;4.50;;;16.80;99.90;18.40;97020.00;;;;5065539;28;20208;-64
2022/07/04 04:13:54;;;;;;;5.77;4.87;;;16.90;99.90;18.00;97022.00;;;;5058577;28;20544;-65
2022/07/04 04:16:43;;;;;;;6.53;5.30;;;16.90;99.90;18.50;97019.00;;;;5071142;28;20629;-64
2022/07/04 04:19:32;;;;;;;6.17;5.00;;;17.00;99.90;18.50;97016.00;;;;5064732;28;20192;-65
2022/07/04 04:22:20;;;;;;;7.13;5.27;;;17.10;99.90;18.50;97015.00;;;;5068908;28;20216;-65
2022/07/04 04:25:10;;;;;;;5.33;4.87;;;17.20;99.90;18.20;97010.00;;;;5070048;28;20220;-66
2022/07/04 04:28:00;;;;;;;5.03;4.53;;;17.20;99.90;18.50;97023.00;;;;5068321;28;20211;-65
2022/07/04 04:30:49;;;;;;;6.43;4.87;;;17.30;99.90;18.40;97020.00;;;;5070722;28;20676;-65
2022/07/04 04:33:38;;;;;;;8.90;4.57;;;17.30;99.90;18.30;97018.00;;;;5051073;28;20208;-63
2022/07/04 04:36:27;;;;;;;5.87;4.90;;;17.30;99.90;18.40;97016.00;;;;5058456;28;20227;-66
2022/07/04 04:39:15;;;;;;;7.23;4.80;;;17.30;99.90;18.70;97017.00;;;;5068104;28;20208;-65
2022/07/04 04:42:05;;;;;;;5.10;4.53;;;17.40;99.90;18.90;97011.00;;;;5062765;28;20192;-64
2022/07/04 04:44:55;;;;;;;5.27;4.30;;;17.60;99.90;19.00;97009.00;;;;5060618;28;20698;-66
2022/07/04 04:47:43;;;;;;;6.63;4.90;;;17.70;99.90;19.20;97014.00;;;;5070482;28;20675;-63
2022/07/04 04:50:32;;;;;;;6.40;4.97;;;17.90;99.90;19.00;97016.00;;;;5066060;28;20785;-63
2022/07/04 04:53:25;;;;;;;5.13;4.67;;;18.00;99.90;19.70;97008.00;;;;5068458;28;20197;-63
2022/07/04 04:56:14;;;;;;;4.73;4.33;;;18.20;99.90;19.60;97025.00;;;;5068892;28;20215;-66
2022/07/04 04:59:02;;;;;;;4.67;4.27;;;18.30;99.90;20.00;97017.00;;;;5061979;28;20220;-65
2022/07/04 05:01:52;;;;;;;6.27;4.93;;;18.50;99.90;20.10;97012.00;;;;5063005;28;20754;-65
2022/07/04 05:04:41;;;;;;;4.73;4.33;;;18.60;99.90;19.90;97022.00;;;;5075118;28;20227;-66
2022/07/04 05:07:30;;;;;;;6.77;4.33;;;18.70;99.90;20.00;97016.00;;;;5066386;28;20228;-65
2022/07/04 05:10:19;;;;;;;6.60;5.07;;;18.80;99.90;20.20;97012.00;;;;5059451;28;20711;-65
2022/07/04 05:13:08;;;;;;;6.30;5.47;;;18.80;99.90;20.50;97018.00;;;;5066890;28;20212;-65
2022/07/04 05:15:57;;;;;;;5.77;5.27;;;18.90;99.90;20.50;97018.00;;;;5053959;28;20235;-65
2022/07/04 05:18:47;;;;;;;7.70;4.87;;;19.00;99.90;20.20;97010.00;;;;5067763;28;20204;-66
2022/07/04 05:21:36;;;;;;;5.63;5.07;;;19.10;99.90;20.60;97011.00;;;;5066192;28;20199;-64
2022/07/04 05:24:25;;;;;;;5.47;4.97;;;19.20;99.90;20.70;97005.00;;;;5061700;28;20211;-64
2022/07/04 05:27:14;;;;;;;8.70;5.20;;;19.30;99.90;20.90;97010.00;;;;5061195;28;20239;-65
2022/07/04 05:30:02;;;;;;;5.23;4.73;;;19.40;99.90;21.10;97011.00;;;;5071032;28;20196;-65
2022/07/04 05:32:51;;;;;;;7.23;4.93;;;19.50;99.90;20.90;97002.00;;;;5060930;28;20201;-66
2022/07/04 05:35:41;;;;;;;6.03;5.43;;;19.60;99.90;21.30;96999.00;;;;5064105;28;20730;-65
2022/07/04 05:38:30;;;;;;;8.10;5.60;;;19.70;99.90;21.80;96991.00;;;;5067456;28;20651;-65
2022/07/04 05:41:19;;;;;;;7.03;6.23;;;20.00;99.90;22.40;96984.00;;;;5066134;28;20196;-63
2022/07/04 05:44:08;;;;;;;5.70;5.13;;;20.30;99.90;22.40;96997.00;;;;5068233;28;20200;-64
2022/07/04 05:46:57;;;;;;;6.67;5.43;;;20.40;99.90;23.30;96991.00;;;;5071339;28;20694;-65
2022/07/04 05:49:45;;;;;;;8.97;6.80;;;20.90;99.90;23.20;97000.00;;;;5069325;28;20199;-65
2022/07/04 05:52:36;;;;;;;8.33;5.13;;;21.20;99.90;22.90;97013.00;;;;5073417;28;20199;-65
2022/07/04 05:55:24;;;;;;;6.30;4.77;;;21.30;99.90;23.00;97000.00;;;;5068397;28;20200;-65
2022/07/04 05:58:13;;;;;;;6.83;4.90;;;21.40;99.90;23.10;96988.00;;;;5069082;28;20196;-64
2022/07/04 06:01:02;;;;;;;5.67;4.83;;;21.50;99.90;23.30;96992.00;;;;5067634;28;20204;-65
2022/07/04 06:03:51;;;;;;;8.43;5.30;;;21.60;99.90;23.30;96992.00;;;;5068472;28;20221;-64
2022/07/04 06:06:40;;;;;;;8.17;5.27;;;21.60;99.90;23.40;96998.00;;;;5069552;28;20250;-65
2022/07/04 06:09:30;;;;;;;8.27;4.90;;;21.70;99.90;23.30;97003.00;;;;5065973;28;20200;-66
2022/07/04 06:12:19;;;;;;;7.20;6.40;;;21.70;99.90;23.30;97007.00;;;;5062005;28;20219;-64
2022/07/04 06:15:09;;;;;;;11.50;5.50;;;21.80;99.90;23.50;97007.00;;;;5066333;28;20207;-63
2022/07/04 06:17:58;;;;;;;6.60;6.00;;;21.80;99.90;23.60;97004.00;;;;5069120;28;20218;-64
2022/07/04 06:20:47;;;;;;;7.17;5.10;;;21.90;99.90;24.10;97015.00;;;;5069463;28;20211;-65
2022/07/04 06:23:36;;;;;;;8.23;5.27;;;22.10;99.90;24.20;97019.00;;;;5068203;28;20852;-64
2022/07/04 06:26:26;;;;;;;6.60;5.33;;;22.20;99.90;23.90;97027.00;;;;5065279;28;20248;-65
2022/07/04 06:29:15;;;;;;;9.73;5.33;;;22.30;99.90;24.10;97040.00;;;;5061205;28;20204;-64
2022/07/04 06:32:05;;;;;;;8.90;5.53;;;22.30;99.90;24.00;97042.00;;;;5067021;28;20197;-64
2022/07/04 06:38:00;;;;;;;6.83;5.20;;;22.40;99.90;24.30;97032.00;;;;5063940;28;20222;-63
2022/07/04 06:40:51;;;;;;;5.27;4.77;;;22.40;99.90;24.00;97042.00;;;;5069729;28;20215;-63
2022/07/04 06:43:41;;;;;;;6.80;5.50;;;22.40;99.90;24.40;97041.00;;;;5067388;28;20204;-65
2022/07/04 06:46:30;;;;;;;8.07;5.87;;;22.50;99.90;24.70;97041.00;;;;5067543;28;20232;-65
2022/07/04 06:49:19;;;;;;;9.83;5.07;;;22.60;99.90;25.00;97047.00;;;;5066954;28;20679;-65
2022/07/04 06:52:08;;;;;;;6.10;5.23;;;22.70;99.90;24.90;97043.00;;;;5063493;28;20215;-65
2022/07/04 06:54:56;;;;;;;6.13;4.67;;;22.90;99.90;25.40;97043.00;;;;5062275;28;20208;-65
2022/07/04 06:57:46;;;;;;;4.73;4.23;;;23.00;99.90;25.50;97044.00;;;;5068082;28;20204;-64
2022/07/04 07:00:37;;;;;;;6.53;5.30;;;23.30;99.90;25.80;97033.00;;;;5067634;28;20207;-64
2022/07/04 07:03:27;;;;;;;5.90;5.03;;;23.50;99.90;26.40;97029.00;;;;5065980;28;20204;-64
2022/07/04 07:06:16;;;;;;;5.97;4.70;;;23.70;99.90;26.90;97025.00;;;;5055787;28;20691;-65
2022/07/04 07:09:05;;;;;;;4.90;4.10;;;24.10;99.90;27.40;97014.00;;;;5066412;28;20196;-64
2022/07/04 07:11:53;;;;;;;6.40;4.67;;;24.50;99.90;27.50;97025.00;;;;5051708;28;20208;-64
2022/07/04 07:14:42;;;;;;;4.83;4.33;;;24.80;99.90;27.50;97028.00;;;;5065129;28;20212;-64
2022/07/04 07:17:32;;;;;;;5.60;4.00;;;25.10;99.90;27.80;97026.00;;;;5067430;28;20231;-63
2022/07/04 07:20:21;;;;;;;6.27;5.13;;;25.30;99.90;28.00;97022.00;;;;5065151;28;20206;-63
2022/07/04 07:23:10;;;;;;;5.30;4.10;;;25.50;99.90;28.20;97015.00;;;;5066845;28;20201;-62
2022/07/04 07:25:59;;;;;;;6.50;4.50;;;25.70;99.90;28.40;97012.00;;;;5063587;28;20219;-61
2022/07/04 07:28:48;;;;;;;4.53;3.97;;;26.00;99.90;29.00;97007.00;;;;5065363;28;20262;-61
2022/07/04 07:31:37;;;;;;;5.87;4.20;;;26.30;99.90;29.00;97018.00;;;;5064631;28;20892;-62
2022/07/04 07:34:27;;;;;;;4.07;3.67;;;26.40;99.90;28.40;97022.00;;;;5060211;28;20208;-62
2022/07/04 07:37:17;;;;;;;4.97;3.90;;;26.40;99.90;28.40;97040.00;;;;5063322;28;20711;-62
2022/07/04 07:40:08;;;;;;;5.17;3.77;;;26.40;99.90;28.40;97038.00;;;;5061154;28;20218;-62
2022/07/04 07:42:57;;;;;;;6.60;3.70;;;26.40;99.90;28.40;97032.00;;;;5057369;28;20673;-62
2022/07/04 07:45:46;;;;;;;3.73;3.37;;;26.40;99.90;28.20;97026.00;;;;5067268;28;20233;-62
2022/07/04 07:48:35;;;;;;;4.27;3.87;;;26.40;99.90;28.30;97036.00;;;;5066620;28;20619;-62
2022/07/04 07:51:25;;;;;;;3.73;3.30;;;26.30;99.90;28.10;97029.00;;;;5072106;28;20209;-63
2022/07/04 07:54:16;;;;;;;4.83;4.10;;;26.20;99.90;27.70;97021.00;;;;5070220;28;20204;-62
2022/07/04 07:57:06;;;;;;;4.63;3.63;;;26.10;99.90;27.70;97025.00;;;;5070909;28;20699;-63
2022/07/04 07:59:55;;;;;;;5.70;3.80;;;26.00;99.90;27.40;97019.00;;;;5058858;28;20615;-63
2022/07/04 08:05:50;;;;;;;4.07;3.53;;;25.60;99.90;27.30;97007.00;;;;5067819;28;20703;-62
2022/07/04 08:08:40;;;;;;;6.73;4.10;;;25.60;99.90;27.60;97020.00;;;;5049698;28;20214;-62
2022/07/04 08:11:29;;;;;;;4.10;3.63;;;25.50;99.90;27.30;97004.00;;;;5060457;28;20588;-61
2022/07/04 08:14:18;;;;;;;3.13;2.83;;;25.50;99.90;27.20;97007.00;;;;5071188;28;20214;-64
2022/07/04 08:17:07;;;;;;;5.60;2.80;;;25.50;99.90;27.40;97005.00;;;;5069842;28;20249;-63
2022/07/04 08:19:56;;;;;;;3.87;3.57;;;25.50;99.90;28.20;97009.00;;;;5069192;28;20207;-63
2022/07/04 08:22:44;;;;;;;3.30;3.00;;;25.70;99.90;28.00;97009.00;;;;5051655;28;20202;-63
2022/07/04 08:25:34;;;;;;;3.37;2.70;;;25.90;99.90;27.90;97020.00;;;;5069589;28;20222;-64
2022/07/04 08:28:23;;;;;;;3.10;2.80;;;26.00;99.90;28.10;97016.00;;;;5076382;28;20228;-62
2022/07/04 08:31:12;;;;;;;3.67;2.80;;;26.00;99.90;28.40;97018.00;;;;5071793;28;20357;-63
2022/07/04 08:34:08;;;;;;;3.53;2.63;;;26.20;99.90;28.70;97025.00;;;;5054817;28;20201;-63
2022/07/04 08:36:57;;;;;;;3.40;3.07;;;26.30;99.90;28.60;97028.00;;;;5056809;28;20231;-63
2022/07/04 08:39:46;;;;;;;2.97;2.70;;;26.40;99.90;28.70;97041.00;;;;5070224;28;20213;-62
2022/07/04 08:42:39;;;;;;;2.70;2.50;;;26.50;99.90;28.80;97042.00;;;;5068727;28;20210;-62
2022/07/04 08:45:32;;;;;;;4.37;2.50;;;26.50;99.90;29.10;97046.00;;;;5069520;28;20195;-63
2022/07/04 08:48:26;;;;;;;2.73;2.53;;;26.70;99.90;28.90;97048.00;;;;5069087;28;20696;-62
2022/07/04 08:51:18;;;;;;;3.00;2.80;;;26.80;99.90;29.10;97043.00;;;;5071019;28;20218;-63
2022/07/04 08:58:25;;;;;;;4.57;2.80;;;26.90;99.90;29.00;97046.00;;;;5068878;28;20206;-63
2022/07/04 09:00:26;;;;;;;2.37;2.17;;;26.90;99.90;28.30;97058.00;;;;5062135;28;20223;-64
2022/07/04 09:03:15;;;;;;;3.47;2.50;;;26.80;99.90;28.50;97069.00;;;;5063115;28;20198;-63
2022/07/04 09:06:04;;;;;;;2.73;2.33;;;26.70;99.90;29.00;97071.00;;;;5051722;28;20230;-63
2022/07/04 09:08:54;;;;;;;2.53;2.07;;;26.80;99.90;28.80;97067.00;;;;5049275;28;20211;-63
2022/07/04 09:11:43;;;;;;;2.17;2.03;;;26.80;99.90;28.80;97075.00;;;;5050983;28;20214;-64
2022/07/04 09:14:32;;;;;;;2.63;2.43;;;26.80;99.90;28.80;97085.00;;;;5068350;28;20218;-63
2022/07/04 09:17:22;;;;;;;3.13;2.50;;;26.80;99.90;28.80;97081.00;;;;5051778;28;20223;-63
2022/07/04 09:20:17;;;;;;;5.77;2.83;;;26.80;99.90;28.60;97082.00;;;;5064358;28;20213;-62
2022/07/04 09:23:19;;;;;;;3.00;2.77;;;26.70;99.90;28.40;97083.00;;;;5053330;28;20206;-63
2022/07/04 09:26:14;;;;;;;2.73;2.40;;;26.60;99.90;28.20;97078.00;;;;5060605;28;20607;-63
2022/07/04 09:29:03;;;;;;;2.73;2.53;;;26.50;99.90;28.20;97084.00;;;;5073067;28;20203;-62
2022/07/04 09:31:52;;;;;;;6.07;2.23;;;26.40;99.90;27.90;97085.00;;;;5070957;28;20219;-63
2022/07/04 09:34:55;;;;;;;2.83;2.20;;;26.30;99.90;27.70;97081.00;;;;5070192;28;20661;-63
2022/07/04 09:37:47;;;;;;;2.77;2.17;;;26.20;99.90;27.70;97084.00;;;;5069332;28;20588;-63
2022/07/04 09:41:24;;;;;;;3.97;2.50;;;26.00;99.90;27.70;97086.00;;;;5069730;28;20194;-62
2022/07/04 09:44:01;;;;;;;2.57;2.33;;;25.90;99.90;27.70;97083.00;;;;5062678;28;20672;-62
2022/07/04 09:46:50;;;;;;;3.47;2.30;;;25.90;99.90;27.70;97080.00;;;;5057041;28;20326;-63
2022/07/04 09:49:39;;;;;;;2.77;2.50;;;25.80;99.90;27.60;97082.00;;;;5068745;28;20197;-62
2022/07/04 09:52:30;;;;;;;2.73;2.53;;;25.80;99.90;27.80;97083.00;;;;5061442;28;20206;-63
2022/07/04 09:55:25;;;;;;;2.47;2.10;;;25.80;99.90;27.80;97077.00;;;;5059114;28;20682;-63
2022/07/04 09:58:16;;;;;;;2.70;2.40;;;25.80;99.90;27.50;97070.00;;;;5069470;28;20693;-62
2022/07/04 10:01:05;;;;;;;3.53;3.00;;;25.80;99.90;27.90;97070.00;;;;5069289;28;20207;-63
2022/07/04 10:03:54;;;;;;;3.30;2.73;;;25.80;99.90;27.70;97072.00;;;;5064080;28;20204;-63
2022/07/04 10:06:44;;;;;;;4.13;2.23;;;25.90;99.90;27.90;97067.00;;;;5069048;28;20243;-63
2022/07/04 10:09:35;;;;;;;2.97;2.77;;;25.90;99.90;28.20;97068.00;;;;5066555;28;20589;-63
2022/07/04 10:12:27;;;;;;;4.57;2.60;;;25.90;99.90;27.60;97084.00;;;;5067797;28;20214;-63
2022/07/04 10:15:16;;;;;;;3.97;2.97;;;25.90;99.90;27.90;97084.00;;;;5062608;28;20216;-62
2022/07/04 10:18:05;;;;;;;3.83;3.30;;;25.90;99.90;27.80;97088.00;;;;5061879;28;20214;-62
2022/07/04 10:20:55;;;;;;;3.03;2.60;;;25.90;99.90;27.80;97080.00;;;;5065632;28;20201;-62
2022/07/04 10:23:46;;;;;;;2.93;2.63;;;25.90;99.90;27.10;97088.00;;;;5061530;28;20211;-62
2022/07/04 10:26:37;;;;;;;2.93;2.27;;;25.70;99.90;27.50;97083.00;;;;5060112;28;20226;-63
2022/07/04 10:29:26;;;;;;;5.00;2.87;;;25.70;99.90;27.40;97079.00;;;;5067828;28;20206;-63
2022/07/04 10:32:15;;;;;;;3.03;2.60;;;25.60;99.90;27.20;97087.00;;;;5064966;28;20208;-63
2022/07/04 10:35:06;;;;;;;3.27;2.97;;;25.60;99.90;27.80;97094.00;;;;5068429;28;20211;-63
2022/07/04 10:38:07;;;;;;;5.37;2.47;;;25.60;99.90;28.10;97098.00;;;;5067232;28;20206;-62
2022/07/04 10:40:59;;;;;;;5.37;3.17;;;25.80;99.90;28.40;97102.00;;;;5061789;28;20207;-63
2022/07/04 10:44:15;;;;;;;4.43;2.73;;;25.90;99.90;28.70;97093.00;;;;5057582;28;20201;-63
2022/07/04 10:47:04;;;;;;;2.97;2.63;;;26.20;99.90;29.00;97090.00;;;;5058048;28;20703;-63
2022/07/04 10:49:53;;;;;;;2.87;2.10;;;26.40;99.90;29.30;97092.00;;;;5067374;28;20197;-63
2022/07/04 10:52:42;;;;;;;2.40;2.20;;;26.70;99.90;29.50;97084.00;;;;5061606;28;20201;-63
2022/07/04 10:55:31;;;;;;;2.73;2.53;;;27.00;99.90;30.30;97077.00;;;;5068688;28;20218;-64
2022/07/04 10:58:40;;;;;;;2.60;2.40;;;27.30;99.90;31.20;97066.00;;;;5067927;28;20203;-64
2022/07/04 11:01:30;;;;;;;3.53;2.60;;;27.90;99.90;31.60;97067.00;;;;5058012;28;20215;-65
2022/07/04 11:04:48;;;;;;;3.47;2.50;;;28.40;99.90;31.10;97068.00;;;;5068344;28;20666;-65
2022/07/04 11:08:05;;;;;;;2.43;2.23;;;28.70;99.90;31.00;97059.00;;;;5067223;28;20232;-65
2022/07/04 11:11:05;;;;;;;2.37;2.17;;;28.80;99.90;31.10;97056.00;;;;5065521;28;20207;-65
2022/07/04 11:14:37;;;;;;;3.00;2.80;;;28.90;99.90;31.40;97008.00;;;;5063241;28;20282;-62
2022/07/04 11:17:38;;;;;;;3.50;2.20;;;29.10;99.90;32.50;97026.00;;;;5065210;28;20835;-63
2022/07/04 11:20:30;;;;;;;3.97;2.53;;;29.60;97.60;33.30;97054.00;;;;5066380;28;20199;-62
2022/07/04 11:23:20;;;;;;;4.05;2.47;;;30.00;98.40;31.50;97024.00;;;;5054661;28;20194;-64
2022/07/04 11:26:09;;;;;;;2.33;2.22;;;30.10;95.20;33.30;96981.00;;;;5065340;28;20230;-62
2022/07/04 11:28:58;;;;;;;2.35;2.15;;;30.40;95.80;34.60;97019.00;;;;5069795;28;20213;-62
2022/07/04 11:31:49;;;;;;;5.07;2.33;;;31.00;95.40;33.40;97000.00;;;;5062454;28;20210;-63
2022/07/04 11:34:40;;;;;;;4.13;2.45;;;31.20;92.60;33.10;97024.00;;;;5061524;28;20197;-64
2022/07/04 11:37:29;;;;;;;2.10;1.90;;;31.20;91.30;33.70;96981.00;;;;5059844;28;20226;-63
2022/07/04 11:46:31;;;;;;;3.10;2.90;;;32.20;90.00;34.40;97011.00;;;;5066505;28;20221;-62
2022/07/04 11:49:20;;;;;;;3.08;2.05;;;32.20;87.10;34.80;96945.00;;;;5065912;28;20233;-63
2022/07/04 11:52:10;;;;;;;3.25;2.60;;;32.50;86.20;35.00;96940.00;;;;5065865;28;20872;-63
2022/07/04 11:54:59;;;;;;;2.40;2.20;;;32.70;81.30;35.90;96969.00;;;;5055474;28;20391;-62
2022/07/04 11:57:50;;;;;;;2.10;1.92;;;33.00;83.30;34.90;96998.00;;;;5060421;28;20403;-61
2022/07/04 12:00:39;;;;;;;4.68;2.25;;;32.80;79.60;34.40;96987.00;;;;5065105;28;20379;-62
2022/07/04 12:03:28;;;;;;;2.60;2.15;;;32.60;80.10;35.20;96937.00;;;;5058415;28;20398;-63
2022/07/04 12:06:17;;;;;;;2.60;2.40;;;32.80;80.60;36.10;96935.00;;;;5065959;28;20442;-62
2022/07/04 12:09:07;;;;;;;3.17;2.30;;;33.20;80.00;36.60;96932.00;;;;5065300;28;20407;-63
2022/07/04 12:11:59;;;;;;;2.92;2.33;;;33.60;77.50;36.50;96924.00;;;;5062068;28;20408;-62
2022/07/04 12:15:04;;;;;;;2.70;2.30;;;33.90;76.70;37.10;96969.00;;;;5050823;28;20408;-63
2022/07/04 12:17:54;;;;;;;4.00;2.50;;;34.20;75.50;35.90;96970.00;;;;5062219;28;20392;-62
2022/07/04 12:20:43;;;;;;;2.90;2.38;;;34.10;72.40;36.70;96955.00;;;;5065133;28;20372;-63
2022/07/04 12:23:32;;;;;;;2.80;2.50;;;34.10;73.20;37.20;96931.00;;;;5065273;28;20392;-63
2022/07/04 12:26:22;;;;;;;3.10;2.05;;;34.30;72.20;36.20;96918.00;;;;5065276;28;20404;-63
2022/07/04 12:29:11;;;;;;;2.80;2.40;;;34.40;70.50;35.60;96929.00;;;;5062420;28;20899;-64
2022/07/04 12:32:00;;;;;;;2.70;2.50;;;34.20;69.30;36.70;96946.00;;;;5058610;28;20991;-63
2022/07/04 12:34:49;;;;;;;3.53;2.30;;;34.20;72.70;36.60;96943.00;;;;5059806;28;20392;-63
2022/07/04 12:37:38;;;;;;;2.60;2.40;;;34.30;70.10;35.70;96939.00;;;;5055015;28;20930;-63
2022/07/04 12:40:28;;;;;;;2.33;2.13;;;34.20;68.70;36.30;96912.00;;;;5058865;28;20408;-63
2022/07/04 12:43:18;;;;;;;2.50;2.10;;;34.30;68.80;36.10;96950.00;;;;5050709;28;20404;-63
2022/07/04 12:46:11;;;;;;;3.85;2.83;;;34.10;68.40;35.70;96938.00;;;;5057190;28;20392;-63
2022/07/04 12:49:02;;;;;;;7.53;5.20;;;34.00;68.40;36.20;96957.00;;;;5055615;28;20990;-63
2022/07/04 12:51:51;;;;;;;3.20;2.92;;;33.90;69.80;35.70;96954.00;;;;5053218;28;20420;-63
2022/07/04 12:54:40;;;;;;;2.83;2.53;;;33.80;69.20;36.20;96932.00;;;;5060280;28;21076;-63
2022/07/04 12:57:29;;;;;;;2.75;2.47;;;33.80;69.60;36.40;96931.00;;;;5054701;28;20423;-63
2022/07/04 13:00:19;;;;;;;3.70;2.77;;;34.00;69.60;37.10;96885.00;;;;5053398;28;20930;-63